sensor_id;sensor_type;location;lat;lon;timestamp;temperature;humidity
4615;DHT22;2320;51.362;6.946;2023-04-15T00:00:25;6.20;99.90
4615;DHT22;2320;51.362;6.946;2023-04-15T00:02:50;6.00;99.90
4615;DHT22;2320;51.362;6.946;2023-04-15T00:05:17;6.00;99.90
4615;DHT22;2320;51.362;6.946;2023-04-15T00:07:42;5.80;99.90
4615;DHT22;2320;51.362;6.946;2023-04-15T00:10:09;5.90;99.90
4615;DHT22;2320;51.362;6.946;2023-04-15T00:12:34;5.90;99.90
4615;DHT22;2320;51.362;6.946;2023-04-15T00:15:00;5.70;99.90
4615;DHT22;2320;51.362;6.946;2023-04-15T00:17:26;5.70;99.90
4615;DHT22;2320;51.362;6.946;2023-04-15T00:19:52;5.90;99.90
4615;DHT22;2320;51.362;6.946;2023-04-15T00:22:17;5.90;99.90
4615;DHT22;2320;51.362;6.946;2023-04-15T00:24:43;5.70;99.90
4615;DHT22;2320;51.362;6.946;2023-04-15T00:27:08;5.70;99.90
4615;DHT22;2320;51.362;6.946;2023-04-15T00:29:34;5.70;99.90
4615;DHT22;2320;51.362;6.946;2023-04-15T00:31:59;5.90;99.90
4615;DHT22;2320;51.362;6.946;2023-04-15T00:34:25;6.10;99.90
4615;DHT22;2320;51.362;6.946;2023-04-15T00:36:52;6.10;99.90
4615;DHT22;2320;51.362;6.946;2023-04-15T00:39:17;6.10;99.90
4615;DHT22;2320;51.362;6.946;2023-04-15T00:41:43;5.90;99.90
4615;DHT22;2320;51.362;6.946;2023-04-15T00:44:09;5.80;99.90
4615;DHT22;2320;51.362;6.946;2023-04-15T00:46:36;5.90;99.90
4615;DHT22;2320;51.362;6.946;2023-04-15T00:49:04;5.90;99.90
4615;DHT22;2320;51.362;6.946;2023-04-15T00:51:31;5.90;99.90
4615;DHT22;2320;51.362;6.946;2023-04-15T00:53:58;5.80;99.90
4615;DHT22;2320;51.362;6.946;2023-04-15T00:56:24;5.80;99.90
4615;DHT22;2320;51.362;6.946;2023-04-15T00:58:50;5.70;99.90
4615;DHT22;2320;51.362;6.946;2023-04-15T01:01:17;5.50;99.90
4615;DHT22;2320;51.362;6.946;2023-04-15T01:03:45;5.50;99.90
4615;DHT22;2320;51.362;6.946;2023-04-15T01:06:11;5.40;99.90
4615;DHT22;2320;51.362;6.946;2023-04-15T01:08:37;5.40;99.90
4615;DHT22;2320;51.362;6.946;2023-04-15T01:11:02;5.40;99.90
4615;DHT22;2320;51.362;6.946;2023-04-15T01:13:27;5.30;99.90
4615;DHT22;2320;51.362;6.946;2023-04-15T01:15:53;5.50;99.90
4615;DHT22;2320;51.362;6.946;2023-04-15T01:18:21;5.40;99.90
4615;DHT22;2320;51.362;6.946;2023-04-15T01:20:46;5.40;99.90
4615;DHT22;2320;51.362;6.946;2023-04-15T01:23:12;5.50;99.90
4615;DHT22;2320;51.362;6.946;2023-04-15T01:25:37;5.40;99.90
4615;DHT22;2320;51.362;6.946;2023-04-15T01:28:04;5.30;99.90
4615;DHT22;2320;51.362;6.946;2023-04-15T01:30:32;5.20;99.90
4615;DHT22;2320;51.362;6.946;2023-04-15T01:32:58;5.20;99.90
4615;DHT22;2320;51.362;6.946;2023-04-15T01:35:23;5.20;99.90
4615;DHT22;2320;51.362;6.946;2023-04-15T01:37:49;5.10;99.90
4615;DHT22;2320;51.362;6.946;2023-04-15T01:40:14;5.20;99.90
4615;DHT22;2320;51.362;6.946;2023-04-15T01:42:40;5.00;99.90
4615;DHT22;2320;51.362;6.946;2023-04-15T01:45:06;5.20;99.90
4615;DHT22;2320;51.362;6.946;2023-04-15T01:47:32;5.20;99.90
4615;DHT22;2320;51.362;6.946;2023-04-15T01:49:58;5.30;99.90
4615;DHT22;2320;51.362;6.946;2023-04-15T01:52:23;5.30;99.90
4615;DHT22;2320;51.362;6.946;2023-04-15T01:54:49;5.30;99.90
4615;DHT22;2320;51.362;6.946;2023-04-15T01:57:14;5.30;99.90
4615;DHT22;2320;51.362;6.946;2023-04-15T01:59:40;5.30;99.90
4615;DHT22;2320;51.362;6.946;2023-04-15T02:02:06;5.20;99.90
4615;DHT22;2320;51.362;6.946;2023-04-15T02:04:32;5.20;99.90
4615;DHT22;2320;51.362;6.946;2023-04-15T02:06:58;5.10;99.90
4615;DHT22;2320;51.362;6.946;2023-04-15T02:09:24;5.20;99.90
4615;DHT22;2320;51.362;6.946;2023-04-15T02:11:50;5.20;99.90
4615;DHT22;2320;51.362;6.946;2023-04-15T02:14:15;5.20;99.90
4615;DHT22;2320;51.362;6.946;2023-04-15T02:16:41;5.10;99.90
4615;DHT22;2320;51.362;6.946;2023-04-15T02:19:07;5.10;99.90
4615;DHT22;2320;51.362;6.946;2023-04-15T02:21:33;5.10;99.90
4615;DHT22;2320;51.362;6.946;2023-04-15T02:23:59;5.10;99.90
4615;DHT22;2320;51.362;6.946;2023-04-15T02:26:25;5.10;99.90
4615;DHT22;2320;51.362;6.946;2023-04-15T02:28:50;5.10;99.90
4615;DHT22;2320;51.362;6.946;2023-04-15T02:31:16;5.10;99.90
4615;DHT22;2320;51.362;6.946;2023-04-15T02:33:41;5.10;99.90
4615;DHT22;2320;51.362;6.946;2023-04-15T02:36:07;5.10;99.90
4615;DHT22;2320;51.362;6.946;2023-04-15T02:38:33;5.00;99.90
4615;DHT22;2320;51.362;6.946;2023-04-15T02:40:59;5.00;99.90
4615;DHT22;2320;51.362;6.946;2023-04-15T02:43:24;5.00;99.90
4615;DHT22;2320;51.362;6.946;2023-04-15T02:45:50;5.00;99.90
4615;DHT22;2320;51.362;6.946;2023-04-15T02:48:16;4.90;99.90
4615;DHT22;2320;51.362;6.946;2023-04-15T02:50:44;5.00;99.90
4615;DHT22;2320;51.362;6.946;2023-04-15T02:53:10;4.90;99.90
4615;DHT22;2320;51.362;6.946;2023-04-15T02:55:35;4.90;99.90
4615;DHT22;2320;51.362;6.946;2023-04-15T02:58:01;4.80;99.90
4615;DHT22;2320;51.362;6.946;2023-04-15T03:00:27;4.90;99.90
4615;DHT22;2320;51.362;6.946;2023-04-15T03:02:56;4.80;99.90
4615;DHT22;2320;51.362;6.946;2023-04-15T03:05:22;4.70;99.90
4615;DHT22;2320;51.362;6.946;2023-04-15T03:07:50;4.70;99.90
4615;DHT22;2320;51.362;6.946;2023-04-15T03:10:16;4.70;99.90
4615;DHT22;2320;51.362;6.946;2023-04-15T03:12:42;4.70;99.90
4615;DHT22;2320;51.362;6.946;2023-04-15T03:15:07;4.60;99.90
4615;DHT22;2320;51.362;6.946;2023-04-15T03:17:33;4.50;99.90
4615;DHT22;2320;51.362;6.946;2023-04-15T03:20:00;4.50;99.90
4615;DHT22;2320;51.362;6.946;2023-04-15T03:22:25;4.60;99.90
4615;DHT22;2320;51.362;6.946;2023-04-15T03:24:51;4.60;99.90
4615;DHT22;2320;51.362;6.946;2023-04-15T03:27:16;4.60;99.90
4615;DHT22;2320;51.362;6.946;2023-04-15T03:29:42;4.50;99.90
4615;DHT22;2320;51.362;6.946;2023-04-15T03:32:07;4.60;99.90
4615;DHT22;2320;51.362;6.946;2023-04-15T03:34:33;4.70;99.90
4615;DHT22;2320;51.362;6.946;2023-04-15T03:36:58;4.70;99.90
4615;DHT22;2320;51.362;6.946;2023-04-15T03:39:23;4.80;99.90
4615;DHT22;2320;51.362;6.946;2023-04-15T03:41:49;4.90;99.90
4615;DHT22;2320;51.362;6.946;2023-04-15T03:44:14;5.00;99.90
4615;DHT22;2320;51.362;6.946;2023-04-15T03:46:40;5.00;99.90
4615;DHT22;2320;51.362;6.946;2023-04-15T03:49:06;5.00;99.90
4615;DHT22;2320;51.362;6.946;2023-04-15T03:51:32;5.10;99.90
4615;DHT22;2320;51.362;6.946;2023-04-15T03:53:57;5.10;99.90
4615;DHT22;2320;51.362;6.946;2023-04-15T03:56:23;5.10;99.90
4615;DHT22;2320;51.362;6.946;2023-04-15T03:58:49;5.10;99.90
4615;DHT22;2320;51.362;6.946;2023-04-15T04:01:14;5.10;99.90
4615;DHT22;2320;51.362;6.946;2023-04-15T04:03:40;5.20;99.90
4615;DHT22;2320;51.362;6.946;2023-04-15T04:06:06;5.20;99.90
4615;DHT22;2320;51.362;6.946;2023-04-15T04:08:32;5.20;99.90
4615;DHT22;2320;51.362;6.946;2023-04-15T04:10:57;5.30;99.90
4615;DHT22;2320;51.362;6.946;2023-04-15T04:13:23;5.30;99.90
4615;DHT22;2320;51.362;6.946;2023-04-15T04:15:48;5.30;99.90
4615;DHT22;2320;51.362;6.946;2023-04-15T04:18:14;5.20;99.90
4615;DHT22;2320;51.362;6.946;2023-04-15T04:20:39;5.30;99.90
4615;DHT22;2320;51.362;6.946;2023-04-15T04:23:05;5.20;99.90
4615;DHT22;2320;51.362;6.946;2023-04-15T04:25:30;5.20;99.90
4615;DHT22;2320;51.362;6.946;2023-04-15T04:27:56;5.10;99.90
4615;DHT22;2320;51.362;6.946;2023-04-15T04:30:21;5.10;99.90
4615;DHT22;2320;51.362;6.946;2023-04-15T04:32:48;5.00;99.90
4615;DHT22;2320;51.362;6.946;2023-04-15T04:35:13;5.00;99.90
4615;DHT22;2320;51.362;6.946;2023-04-15T04:37:39;5.00;99.90
4615;DHT22;2320;51.362;6.946;2023-04-15T04:40:05;4.90;99.90
4615;DHT22;2320;51.362;6.946;2023-04-15T04:42:30;5.00;99.90
4615;DHT22;2320;51.362;6.946;2023-04-15T04:44:56;4.90;99.90
4615;DHT22;2320;51.362;6.946;2023-04-15T04:47:21;5.00;99.90
4615;DHT22;2320;51.362;6.946;2023-04-15T04:49:47;5.00;99.90
4615;DHT22;2320;51.362;6.946;2023-04-15T04:52:12;5.00;99.90
4615;DHT22;2320;51.362;6.946;2023-04-15T04:54:38;4.90;99.90
4615;DHT22;2320;51.362;6.946;2023-04-15T04:57:03;4.90;99.90
4615;DHT22;2320;51.362;6.946;2023-04-15T04:59:29;4.80;99.90
4615;DHT22;2320;51.362;6.946;2023-04-15T05:01:55;4.80;99.90
4615;DHT22;2320;51.362;6.946;2023-04-15T05:04:20;4.90;99.90
4615;DHT22;2320;51.362;6.946;2023-04-15T05:06:46;5.00;99.90
4615;DHT22;2320;51.362;6.946;2023-04-15T05:09:11;5.00;99.90
4615;DHT22;2320;51.362;6.946;2023-04-15T05:11:37;5.00;99.90
4615;DHT22;2320;51.362;6.946;2023-04-15T05:14:02;4.90;99.90
4615;DHT22;2320;51.362;6.946;2023-04-15T05:16:27;5.00;99.90
4615;DHT22;2320;51.362;6.946;2023-04-15T05:18:53;5.00;99.90
4615;DHT22;2320;51.362;6.946;2023-04-15T05:21:19;5.00;99.90
4615;DHT22;2320;51.362;6.946;2023-04-15T05:23:45;5.00;99.90
4615;DHT22;2320;51.362;6.946;2023-04-15T05:26:10;5.00;99.90
4615;DHT22;2320;51.362;6.946;2023-04-15T05:28:36;5.10;99.90
4615;DHT22;2320;51.362;6.946;2023-04-15T05:31:01;5.10;99.90
4615;DHT22;2320;51.362;6.946;2023-04-15T05:33:27;5.20;99.90
4615;DHT22;2320;51.362;6.946;2023-04-15T05:35:52;5.20;99.90
4615;DHT22;2320;51.362;6.946;2023-04-15T05:38:18;5.30;99.90
4615;DHT22;2320;51.362;6.946;2023-04-15T05:40:43;5.40;99.90
4615;DHT22;2320;51.362;6.946;2023-04-15T05:43:09;5.50;99.90
4615;DHT22;2320;51.362;6.946;2023-04-15T05:45:34;5.70;99.90
4615;DHT22;2320;51.362;6.946;2023-04-15T05:48:00;6.00;99.90
4615;DHT22;2320;51.362;6.946;2023-04-15T05:50:26;6.40;99.90
4615;DHT22;2320;51.362;6.946;2023-04-15T05:52:51;6.70;99.90
4615;DHT22;2320;51.362;6.946;2023-04-15T05:55:17;6.90;99.90
4615;DHT22;2320;51.362;6.946;2023-04-15T05:57:42;7.40;99.90
4615;DHT22;2320;51.362;6.946;2023-04-15T06:00:08;7.90;99.90
4615;DHT22;2320;51.362;6.946;2023-04-15T06:02:34;8.30;99.90
4615;DHT22;2320;51.362;6.946;2023-04-15T06:05:00;8.80;99.90
4615;DHT22;2320;51.362;6.946;2023-04-15T06:07:26;9.00;99.90
4615;DHT22;2320;51.362;6.946;2023-04-15T06:09:51;9.40;99.90
4615;DHT22;2320;51.362;6.946;2023-04-15T06:12:17;9.40;99.90
4615;DHT22;2320;51.362;6.946;2023-04-15T06:14:42;9.70;99.90
4615;DHT22;2320;51.362;6.946;2023-04-15T06:17:07;10.20;99.90
4615;DHT22;2320;51.362;6.946;2023-04-15T06:19:33;10.50;99.90
4615;DHT22;2320;51.362;6.946;2023-04-15T06:21:59;11.10;99.90
4615;DHT22;2320;51.362;6.946;2023-04-15T06:24:25;11.70;99.90
4615;DHT22;2320;51.362;6.946;2023-04-15T06:26:50;12.60;99.90
4615;DHT22;2320;51.362;6.946;2023-04-15T06:29:16;13.10;99.90
4615;DHT22;2320;51.362;6.946;2023-04-15T06:31:41;13.60;99.90
4615;DHT22;2320;51.362;6.946;2023-04-15T06:34:07;13.60;99.90
4615;DHT22;2320;51.362;6.946;2023-04-15T06:36:32;14.00;99.90
4615;DHT22;2320;51.362;6.946;2023-04-15T06:38:58;14.10;99.90
4615;DHT22;2320;51.362;6.946;2023-04-15T06:41:23;14.20;99.90
4615;DHT22;2320;51.362;6.946;2023-04-15T06:43:49;14.60;99.90
4615;DHT22;2320;51.362;6.946;2023-04-15T06:46:15;14.70;99.90
4615;DHT22;2320;51.362;6.946;2023-04-15T06:48:40;15.10;99.90
4615;DHT22;2320;51.362;6.946;2023-04-15T06:51:06;15.30;99.90
4615;DHT22;2320;51.362;6.946;2023-04-15T06:53:31;15.10;99.90
4615;DHT22;2320;51.362;6.946;2023-04-15T06:55:56;15.90;99.90
4615;DHT22;2320;51.362;6.946;2023-04-15T06:58:22;16.80;99.90
4615;DHT22;2320;51.362;6.946;2023-04-15T07:00:47;16.90;99.90
4615;DHT22;2320;51.362;6.946;2023-04-15T07:03:13;16.50;99.90
4615;DHT22;2320;51.362;6.946;2023-04-15T07:05:39;16.30;99.90
4615;DHT22;2320;51.362;6.946;2023-04-15T07:08:05;15.50;99.90
4615;DHT22;2320;51.362;6.946;2023-04-15T07:10:34;16.00;99.90
4615;DHT22;2320;51.362;6.946;2023-04-15T07:13:00;15.90;99.90
4615;DHT22;2320;51.362;6.946;2023-04-15T07:15:26;15.70;99.90
4615;DHT22;2320;51.362;6.946;2023-04-15T07:17:51;15.60;99.90
4615;DHT22;2320;51.362;6.946;2023-04-15T07:20:17;15.70;99.90
4615;DHT22;2320;51.362;6.946;2023-04-15T07:22:42;15.80;99.90
4615;DHT22;2320;51.362;6.946;2023-04-15T07:25:08;16.10;99.90
4615;DHT22;2320;51.362;6.946;2023-04-15T07:27:34;16.00;99.90
4615;DHT22;2320;51.362;6.946;2023-04-15T07:29:59;16.20;99.90
4615;DHT22;2320;51.362;6.946;2023-04-15T07:32:25;16.40;99.90
4615;DHT22;2320;51.362;6.946;2023-04-15T07:34:50;16.60;99.90
4615;DHT22;2320;51.362;6.946;2023-04-15T07:37:16;16.20;99.90
4615;DHT22;2320;51.362;6.946;2023-04-15T07:39:41;15.50;99.90
4615;DHT22;2320;51.362;6.946;2023-04-15T07:42:07;14.60;99.90
4615;DHT22;2320;51.362;6.946;2023-04-15T07:44:33;14.00;99.90
4615;DHT22;2320;51.362;6.946;2023-04-15T07:46:59;14.00;99.90
4615;DHT22;2320;51.362;6.946;2023-04-15T07:49:24;14.00;99.90
4615;DHT22;2320;51.362;6.946;2023-04-15T07:51:50;14.00;99.90
4615;DHT22;2320;51.362;6.946;2023-04-15T07:54:15;13.60;99.90
4615;DHT22;2320;51.362;6.946;2023-04-15T07:56:41;13.80;99.90
4615;DHT22;2320;51.362;6.946;2023-04-15T07:59:07;13.50;99.90
4615;DHT22;2320;51.362;6.946;2023-04-15T08:01:33;13.60;99.90
4615;DHT22;2320;51.362;6.946;2023-04-15T08:03:59;13.60;99.90
4615;DHT22;2320;51.362;6.946;2023-04-15T08:06:24;13.50;99.90
4615;DHT22;2320;51.362;6.946;2023-04-15T08:08:50;13.60;99.90
4615;DHT22;2320;51.362;6.946;2023-04-15T08:11:16;13.60;99.90
4615;DHT22;2320;51.362;6.946;2023-04-15T08:13:41;14.20;99.90
4615;DHT22;2320;51.362;6.946;2023-04-15T08:16:20;14.70;99.90
4615;DHT22;2320;51.362;6.946;2023-04-15T08:18:46;14.90;99.90
4615;DHT22;2320;51.362;6.946;2023-04-15T08:21:12;15.30;99.90
4615;DHT22;2320;51.362;6.946;2023-04-15T08:23:37;15.50;99.90
4615;DHT22;2320;51.362;6.946;2023-04-15T08:26:03;15.60;99.90
4615;DHT22;2320;51.362;6.946;2023-04-15T08:28:29;15.40;99.90
4615;DHT22;2320;51.362;6.946;2023-04-15T08:30:55;15.30;99.90
4615;DHT22;2320;51.362;6.946;2023-04-15T08:33:20;15.10;99.90
4615;DHT22;2320;51.362;6.946;2023-04-15T08:35:47;15.00;99.90
4615;DHT22;2320;51.362;6.946;2023-04-15T08:38:12;15.20;99.90
4615;DHT22;2320;51.362;6.946;2023-04-15T08:40:41;15.30;99.90
4615;DHT22;2320;51.362;6.946;2023-04-15T08:43:11;15.40;99.90
4615;DHT22;2320;51.362;6.946;2023-04-15T08:45:37;15.50;99.90
4615;DHT22;2320;51.362;6.946;2023-04-15T08:48:03;16.40;99.90
4615;DHT22;2320;51.362;6.946;2023-04-15T08:50:29;16.90;99.90
4615;DHT22;2320;51.362;6.946;2023-04-15T08:52:57;17.30;99.90
4615;DHT22;2320;51.362;6.946;2023-04-15T08:55:23;17.70;99.90
4615;DHT22;2320;51.362;6.946;2023-04-15T08:57:49;18.10;99.90
4615;DHT22;2320;51.362;6.946;2023-04-15T09:00:15;18.40;99.90
4615;DHT22;2320;51.362;6.946;2023-04-15T09:02:41;18.40;99.90
4615;DHT22;2320;51.362;6.946;2023-04-15T09:05:07;17.90;99.90
4615;DHT22;2320;51.362;6.946;2023-04-15T09:07:33;17.60;99.90
4615;DHT22;2320;51.362;6.946;2023-04-15T09:10:00;17.80;99.90
4615;DHT22;2320;51.362;6.946;2023-04-15T09:12:25;18.10;99.90
4615;DHT22;2320;51.362;6.946;2023-04-15T09:14:51;19.20;99.90
4615;DHT22;2320;51.362;6.946;2023-04-15T09:17:18;19.80;99.90
4615;DHT22;2320;51.362;6.946;2023-04-15T09:19:44;20.00;99.90
4615;DHT22;2320;51.362;6.946;2023-04-15T09:22:09;19.90;99.90
4615;DHT22;2320;51.362;6.946;2023-04-15T09:24:36;19.10;99.90
4615;DHT22;2320;51.362;6.946;2023-04-15T09:27:02;18.80;99.90
4615;DHT22;2320;51.362;6.946;2023-04-15T09:29:28;19.40;99.90
4615;DHT22;2320;51.362;6.946;2023-04-15T09:31:53;18.90;99.90
4615;DHT22;2320;51.362;6.946;2023-04-15T09:34:19;18.40;99.90
4615;DHT22;2320;51.362;6.946;2023-04-15T09:39:10;17.10;99.90
4615;DHT22;2320;51.362;6.946;2023-04-15T09:41:36;17.50;99.90
4615;DHT22;2320;51.362;6.946;2023-04-15T09:44:02;18.30;99.90
4615;DHT22;2320;51.362;6.946;2023-04-15T09:46:41;18.30;99.90
4615;DHT22;2320;51.362;6.946;2023-04-15T09:49:07;18.70;99.90
4615;DHT22;2320;51.362;6.946;2023-04-15T09:51:36;18.20;99.90
4615;DHT22;2320;51.362;6.946;2023-04-15T09:54:02;17.90;99.90
4615;DHT22;2320;51.362;6.946;2023-04-15T09:56:33;17.50;99.90
4615;DHT22;2320;51.362;6.946;2023-04-15T09:59:00;17.00;99.90
4615;DHT22;2320;51.362;6.946;2023-04-15T10:01:26;16.80;99.90
4615;DHT22;2320;51.362;6.946;2023-04-15T10:03:51;16.80;99.90
4615;DHT22;2320;51.362;6.946;2023-04-15T10:06:18;16.60;99.90
4615;DHT22;2320;51.362;6.946;2023-04-15T10:08:44;16.00;99.90
4615;DHT22;2320;51.362;6.946;2023-04-15T10:11:10;15.80;99.90
4615;DHT22;2320;51.362;6.946;2023-04-15T10:13:36;15.80;99.90
4615;DHT22;2320;51.362;6.946;2023-04-15T10:16:06;15.40;99.90
4615;DHT22;2320;51.362;6.946;2023-04-15T10:18:35;15.20;99.90
4615;DHT22;2320;51.362;6.946;2023-04-15T10:21:02;15.20;99.90
4615;DHT22;2320;51.362;6.946;2023-04-15T10:23:28;15.50;99.90
4615;DHT22;2320;51.362;6.946;2023-04-15T10:25:54;15.50;99.90
4615;DHT22;2320;51.362;6.946;2023-04-15T10:28:20;15.20;99.90
4615;DHT22;2320;51.362;6.946;2023-04-15T10:30:47;15.10;99.90
4615;DHT22;2320;51.362;6.946;2023-04-15T10:33:14;14.90;99.90
4615;DHT22;2320;51.362;6.946;2023-04-15T10:35:41;14.60;99.90
4615;DHT22;2320;51.362;6.946;2023-04-15T10:40:50;14.10;99.90
4615;DHT22;2320;51.362;6.946;2023-04-15T10:43:25;14.30;99.90
4615;DHT22;2320;51.362;6.946;2023-04-15T10:45:54;13.80;99.90
4615;DHT22;2320;51.362;6.946;2023-04-15T10:48:19;13.90;99.90
4615;DHT22;2320;51.362;6.946;2023-04-15T10:50:54;14.10;99.90
4615;DHT22;2320;51.362;6.946;2023-04-15T10:53:29;14.30;99.90
4615;DHT22;2320;51.362;6.946;2023-04-15T10:55:56;14.30;99.90
4615;DHT22;2320;51.362;6.946;2023-04-15T10:58:22;14.30;99.90
4615;DHT22;2320;51.362;6.946;2023-04-15T11:00:49;14.40;99.90
4615;DHT22;2320;51.362;6.946;2023-04-15T11:03:16;14.30;99.90
4615;DHT22;2320;51.362;6.946;2023-04-15T11:05:51;14.10;99.90
4615;DHT22;2320;51.362;6.946;2023-04-15T11:08:17;14.20;99.90
4615;DHT22;2320;51.362;6.946;2023-04-15T11:15:34;14.30;99.90
4615;DHT22;2320;51.362;6.946;2023-04-15T11:20:33;14.90;99.90
4615;DHT22;2320;51.362;6.946;2023-04-15T11:22:58;14.80;99.90
4615;DHT22;2320;51.362;6.946;2023-04-15T11:25:24;14.70;99.90
4615;DHT22;2320;51.362;6.946;2023-04-15T11:27:50;14.50;99.90
4615;DHT22;2320;51.362;6.946;2023-04-15T11:30:20;14.30;99.90
4615;DHT22;2320;51.362;6.946;2023-04-15T11:32:47;14.20;99.90
4615;DHT22;2320;51.362;6.946;2023-04-15T11:35:12;13.80;99.90
4615;DHT22;2320;51.362;6.946;2023-04-15T11:37:38;13.70;99.90
4615;DHT22;2320;51.362;6.946;2023-04-15T11:40:04;13.60;99.90
4615;DHT22;2320;51.362;6.946;2023-04-15T11:42:30;13.40;99.90
4615;DHT22;2320;51.362;6.946;2023-04-15T11:47:36;13.50;99.90
4615;DHT22;2320;51.362;6.946;2023-04-15T11:50:15;13.50;99.90
4615;DHT22;2320;51.362;6.946;2023-04-15T11:53:03;13.50;99.90
4615;DHT22;2320;51.362;6.946;2023-04-15T11:55:27;13.50;99.90
4615;DHT22;2320;51.362;6.946;2023-04-15T11:58:08;13.30;99.90
4615;DHT22;2320;51.362;6.946;2023-04-15T12:00:35;13.20;99.90
4615;DHT22;2320;51.362;6.946;2023-04-15T12:03:16;13.10;99.90
4615;DHT22;2320;51.362;6.946;2023-04-15T12:06:02;13.10;99.90
4615;DHT22;2320;51.362;6.946;2023-04-15T12:11:12;13.10;99.90
4615;DHT22;2320;51.362;6.946;2023-04-15T12:13:42;13.00;99.90
4615;DHT22;2320;51.362;6.946;2023-04-15T12:16:07;12.90;99.90
4615;DHT22;2320;51.362;6.946;2023-04-15T12:18:33;12.90;99.90
4615;DHT22;2320;51.362;6.946;2023-04-15T12:21:03;12.70;99.90
4615;DHT22;2320;51.362;6.946;2023-04-15T12:23:29;12.60;99.90
4615;DHT22;2320;51.362;6.946;2023-04-15T12:25:55;12.60;99.90
4615;DHT22;2320;51.362;6.946;2023-04-15T12:28:21;12.60;99.90
4615;DHT22;2320;51.362;6.946;2023-04-15T12:30:49;12.50;99.90
4615;DHT22;2320;51.362;6.946;2023-04-15T12:33:15;12.40;99.90
4615;DHT22;2320;51.362;6.946;2023-04-15T12:35:41;12.30;99.90
4615;DHT22;2320;51.362;6.946;2023-04-15T12:38:06;12.30;99.90
4615;DHT22;2320;51.362;6.946;2023-04-15T12:40:34;12.20;99.90
4615;DHT22;2320;51.362;6.946;2023-04-15T12:42:59;12.20;99.90
4615;DHT22;2320;51.362;6.946;2023-04-15T12:45:25;12.50;99.90
4615;DHT22;2320;51.362;6.946;2023-04-15T12:47:51;12.50;99.90
4615;DHT22;2320;51.362;6.946;2023-04-15T12:50:16;12.40;99.90
4615;DHT22;2320;51.362;6.946;2023-04-15T12:52:42;12.30;99.90
4615;DHT22;2320;51.362;6.946;2023-04-15T12:55:08;12.40;99.90
4615;DHT22;2320;51.362;6.946;2023-04-15T12:57:33;12.40;99.90
4615;DHT22;2320;51.362;6.946;2023-04-15T12:59:59;12.40;99.90
4615;DHT22;2320;51.362;6.946;2023-04-15T13:02:24;12.50;99.90
4615;DHT22;2320;51.362;6.946;2023-04-15T13:04:52;12.30;99.90
4615;DHT22;2320;51.362;6.946;2023-04-15T13:07:18;12.30;99.90
4615;DHT22;2320;51.362;6.946;2023-04-15T13:09:43;12.20;99.90
4615;DHT22;2320;51.362;6.946;2023-04-15T13:12:09;12.40;99.90
4615;DHT22;2320;51.362;6.946;2023-04-15T13:14:34;12.40;99.90
4615;DHT22;2320;51.362;6.946;2023-04-15T13:17:00;12.50;99.90
4615;DHT22;2320;51.362;6.946;2023-04-15T13:19:27;12.60;99.90
4615;DHT22;2320;51.362;6.946;2023-04-15T13:21:52;12.90;99.90
4615;DHT22;2320;51.362;6.946;2023-04-15T13:24:18;13.00;99.90
4615;DHT22;2320;51.362;6.946;2023-04-15T13:26:43;13.00;99.90
4615;DHT22;2320;51.362;6.946;2023-04-15T13:29:08;13.10;99.90
4615;DHT22;2320;51.362;6.946;2023-04-15T13:31:35;13.10;99.90
4615;DHT22;2320;51.362;6.946;2023-04-15T13:34:01;13.10;99.90
4615;DHT22;2320;51.362;6.946;2023-04-15T13:36:26;13.00;99.90
4615;DHT22;2320;51.362;6.946;2023-04-15T13:38:52;13.00;99.90
4615;DHT22;2320;51.362;6.946;2023-04-15T13:41:17;13.00;99.90
4615;DHT22;2320;51.362;6.946;2023-04-15T13:43:44;13.00;99.90
4615;DHT22;2320;51.362;6.946;2023-04-15T13:46:09;13.10;99.90
4615;DHT22;2320;51.362;6.946;2023-04-15T13:48:35;12.90;99.90
4615;DHT22;2320;51.362;6.946;2023-04-15T13:51:00;12.90;99.90
4615;DHT22;2320;51.362;6.946;2023-04-15T13:53:26;12.80;99.90
4615;DHT22;2320;51.362;6.946;2023-04-15T13:55:51;12.80;99.90
4615;DHT22;2320;51.362;6.946;2023-04-15T13:58:17;12.60;99.90
4615;DHT22;2320;51.362;6.946;2023-04-15T14:00:42;12.70;99.90
4615;DHT22;2320;51.362;6.946;2023-04-15T14:03:08;12.70;99.90
4615;DHT22;2320;51.362;6.946;2023-04-15T14:05:33;12.70;99.90
4615;DHT22;2320;51.362;6.946;2023-04-15T14:07:59;12.70;99.90
4615;DHT22;2320;51.362;6.946;2023-04-15T14:10:25;12.70;99.90
4615;DHT22;2320;51.362;6.946;2023-04-15T14:12:50;12.70;99.90
4615;DHT22;2320;51.362;6.946;2023-04-15T14:15:16;12.60;99.90
4615;DHT22;2320;51.362;6.946;2023-04-15T14:17:41;12.40;99.90
4615;DHT22;2320;51.362;6.946;2023-04-15T14:20:07;12.30;99.90
4615;DHT22;2320;51.362;6.946;2023-04-15T14:22:32;12.20;99.90
4615;DHT22;2320;51.362;6.946;2023-04-15T14:24:58;12.20;99.90
4615;DHT22;2320;51.362;6.946;2023-04-15T14:27:23;12.30;99.90
4615;DHT22;2320;51.362;6.946;2023-04-15T14:29:49;12.10;99.90
4615;DHT22;2320;51.362;6.946;2023-04-15T14:32:14;11.90;99.90
4615;DHT22;2320;51.362;6.946;2023-04-15T14:34:40;11.90;99.90
4615;DHT22;2320;51.362;6.946;2023-04-15T14:37:06;11.80;99.90
4615;DHT22;2320;51.362;6.946;2023-04-15T14:39:31;11.70;99.90
4615;DHT22;2320;51.362;6.946;2023-04-15T14:41:57;11.80;99.90
4615;DHT22;2320;51.362;6.946;2023-04-15T14:44:23;11.80;99.90
4615;DHT22;2320;51.362;6.946;2023-04-15T14:46:48;11.80;99.90
4615;DHT22;2320;51.362;6.946;2023-04-15T14:49:13;11.80;99.90
4615;DHT22;2320;51.362;6.946;2023-04-15T14:51:39;12.00;99.90
4615;DHT22;2320;51.362;6.946;2023-04-15T14:54:05;12.10;99.90
4615;DHT22;2320;51.362;6.946;2023-04-15T14:56:30;11.90;99.90
4615;DHT22;2320;51.362;6.946;2023-04-15T14:58:56;11.80;99.90
4615;DHT22;2320;51.362;6.946;2023-04-15T15:01:21;11.70;99.90
4615;DHT22;2320;51.362;6.946;2023-04-15T15:03:47;11.60;99.90
4615;DHT22;2320;51.362;6.946;2023-04-15T15:06:13;11.50;99.90
4615;DHT22;2320;51.362;6.946;2023-04-15T15:08:39;11.50;99.90
4615;DHT22;2320;51.362;6.946;2023-04-15T15:11:04;11.40;99.90
4615;DHT22;2320;51.362;6.946;2023-04-15T15:13:29;11.40;99.90
4615;DHT22;2320;51.362;6.946;2023-04-15T15:15:55;11.30;99.90
4615;DHT22;2320;51.362;6.946;2023-04-15T15:18:21;11.30;99.90
4615;DHT22;2320;51.362;6.946;2023-04-15T15:20:47;11.40;99.90
4615;DHT22;2320;51.362;6.946;2023-04-15T15:23:12;11.60;99.90
4615;DHT22;2320;51.362;6.946;2023-04-15T15:25:38;11.60;99.90
4615;DHT22;2320;51.362;6.946;2023-04-15T15:28:03;11.60;99.90
4615;DHT22;2320;51.362;6.946;2023-04-15T15:30:29;11.60;99.90
4615;DHT22;2320;51.362;6.946;2023-04-15T15:32:54;11.70;99.90
4615;DHT22;2320;51.362;6.946;2023-04-15T15:35:20;11.70;99.90
4615;DHT22;2320;51.362;6.946;2023-04-15T15:37:47;11.60;99.90
4615;DHT22;2320;51.362;6.946;2023-04-15T15:40:12;11.50;99.90
4615;DHT22;2320;51.362;6.946;2023-04-15T15:42:38;11.30;99.90
4615;DHT22;2320;51.362;6.946;2023-04-15T15:45:03;11.20;99.90
4615;DHT22;2320;51.362;6.946;2023-04-15T15:47:29;11.10;99.90
4615;DHT22;2320;51.362;6.946;2023-04-15T15:49:54;10.90;99.90
4615;DHT22;2320;51.362;6.946;2023-04-15T15:52:20;11.00;99.90
4615;DHT22;2320;51.362;6.946;2023-04-15T15:54:46;10.90;99.90
4615;DHT22;2320;51.362;6.946;2023-04-15T15:57:12;10.90;99.90
4615;DHT22;2320;51.362;6.946;2023-04-15T15:59:37;11.00;99.90
4615;DHT22;2320;51.362;6.946;2023-04-15T16:02:11;10.90;99.90
4615;DHT22;2320;51.362;6.946;2023-04-15T16:04:38;10.80;99.90
4615;DHT22;2320;51.362;6.946;2023-04-15T16:07:03;10.90;99.90
4615;DHT22;2320;51.362;6.946;2023-04-15T16:09:29;10.90;99.90
4615;DHT22;2320;51.362;6.946;2023-04-15T16:11:55;10.80;99.90
4615;DHT22;2320;51.362;6.946;2023-04-15T16:14:22;10.90;99.90
4615;DHT22;2320;51.362;6.946;2023-04-15T16:16:47;10.90;99.90